Time;durP1;ratioP1;P1;durP2;ratioP2;P2;SDS_P1;SDS_P2;PMS_P1;PMS_P2;Temp;Humidity;BMP_temperature;BMP_pressure;BME280_temperature;BME280_humidity;BME280_pressure;Samples;Min_cycle;Max_cycle;Signal;HPM_P1;HPM_P2
2022/08/22 00:01:28;;;;;;;8.48;4.20;;;;;;;;;;5007396;28;20056;-87
2022/08/22 00:04:06;;;;;;;7.78;4.20;;;;;;;;;;5011006;28;20088;-87
2022/08/22 00:06:35;;;;;;;8.13;4.75;;;;;;;;;;5011463;28;20129;-86
2022/08/22 00:09:19;;;;;;;9.70;4.53;;;;;;;;;;5005661;28;20038;-86
2022/08/22 00:11:58;;;;;;;7.20;4.53;;;;;;;;;;5009907;28;20042;-87
2022/08/22 00:14:40;;;;;;;6.22;4.43;;;;;;;;;;5006457;28;20103;-87
2022/08/22 00:17:19;;;;;;;6.65;4.13;;;;;;;;;;5010741;28;20486;-87
2022/08/22 00:19:51;;;;;;;5.93;4.10;;;;;;;;;;5003099;28;20065;-87
2022/08/22 00:22:27;;;;;;;7.75;4.05;;;;;;;;;;5011427;28;20084;-87
2022/08/22 00:25:12;;;;;;;8.20;4.20;;;;;;;;;;5028196;28;20052;-87
2022/08/22 00:27:46;;;;;;;8.75;4.43;;;;;;;;;;5008334;28;20393;-87
2022/08/22 00:30:14;;;;;;;9.10;4.70;;;;;;;;;;5012181;28;20052;-87
2022/08/22 00:32:46;;;;;;;6.45;4.72;;;;;;;;;;5032578;28;20096;-87
2022/08/22 00:35:31;;;;;;;9.35;4.70;;;;;;;;;;5015738;28;20042;-87
2022/08/22 00:38:02;;;;;;;7.47;4.72;;;;;;;;;;5007858;28;20042;-87
2022/08/22 00:40:47;;;;;;;7.45;4.00;;;;;;;;;;5025478;28;20092;-87
2022/08/22 00:43:13;;;;;;;9.25;4.90;;;;;;;;;;5030048;28;20099;-87
2022/08/22 00:45:47;;;;;;;8.65;4.50;;;;;;;;;;5005357;28;20041;-88
2022/08/22 00:48:42;;;;;;;7.80;4.78;;;;;;;;;;5021952;28;20049;-87
2022/08/22 00:51:21;;;;;;;8.00;4.72;;;;;;;;;;4986466;28;20053;-87
2022/08/22 00:53:53;;;;;;;6.70;4.28;;;;;;;;;;5007920;28;20038;-86
2022/08/22 00:56:22;;;;;;;7.80;4.45;;;;;;;;;;5010416;28;20112;-87
2022/08/22 00:58:59;;;;;;;7.38;4.28;;;;;;;;;;5031672;28;20045;-87
2022/08/22 01:01:35;;;;;;;7.80;4.00;;;;;;;;;;5011064;28;20075;-87
2022/08/22 01:04:23;;;;;;;7.72;4.40;;;;;;;;;;5014751;28;20446;-86
2022/08/22 01:06:52;;;;;;;8.23;4.40;;;;;;;;;;5026908;28;20099;-86
2022/08/22 01:09:41;;;;;;;7.05;4.53;;;;;;;;;;5010703;28;20512;-87
2022/08/22 01:12:10;;;;;;;8.43;4.22;;;;;;;;;;5022621;28;20042;-87
2022/08/22 01:14:53;;;;;;;7.53;4.60;;;;;;;;;;5030100;28;20045;-87
2022/08/22 01:17:19;;;;;;;9.02;5.00;;;;;;;;;;5028876;28;20104;-87
2022/08/22 01:19:54;;;;;;;11.18;4.70;;;;;;;;;;5029422;28;20037;-87
2022/08/22 01:22:46;;;;;;;8.55;4.43;;;;;;;;;;5031983;28;20486;-86
2022/08/22 01:25:27;;;;;;;7.10;4.13;;;;;;;;;;4978273;28;20053;-87
2022/08/22 01:28:02;;;;;;;8.43;4.25;;;;;;;;;;5012083;28;20160;-87
2022/08/22 01:30:44;;;;;;;6.50;4.60;;;;;;;;;;5008675;28;20067;-87
2022/08/22 01:33:23;;;;;;;8.40;4.20;;;;;;;;;;5013015;28;20042;-87
2022/08/22 01:36:12;;;;;;;7.28;4.25;;;;;;;;;;5009930;28;20049;-87
2022/08/22 01:38:47;;;;;;;8.27;4.45;;;;;;;;;;4991229;28;20552;-87
2022/08/22 01:41:33;;;;;;;10.35;4.75;;;;;;;;;;5012900;28;20076;-87
2022/08/22 01:44:17;;;;;;;6.03;4.40;;;;;;;;;;5024602;28;20045;-88
2022/08/22 01:46:53;;;;;;;9.73;5.03;;;;;;;;;;5007725;28;20065;-88
2022/08/22 01:49:19;;;;;;;8.38;4.90;;;;;;;;;;5027832;28;20051;-88
2022/08/22 01:51:50;;;;;;;8.52;5.13;;;;;;;;;;5002337;28;20037;-88
2022/08/22 01:54:35;;;;;;;9.07;5.47;;;;;;;;;;5029232;28;20045;-87
2022/08/22 01:57:02;;;;;;;9.05;5.53;;;;;;;;;;5012634;28;21743;-88
2022/08/22 01:59:37;;;;;;;8.40;5.35;;;;;;;;;;5008627;28;20079;-87
2022/08/22 02:02:15;;;;;;;8.18;5.65;;;;;;;;;;5011613;28;20095;-86
2022/08/22 02:04:46;;;;;;;7.35;5.18;;;;;;;;;;5009577;28;20068;-87
2022/08/22 02:07:15;;;;;;;10.52;5.88;;;;;;;;;;5009037;28;20478;-86
2022/08/22 02:09:52;;;;;;;8.77;5.07;;;;;;;;;;5020715;28;20596;-87
2022/08/22 02:12:23;;;;;;;8.60;5.75;;;;;;;;;;5031244;28;20153;-87
2022/08/22 02:15:12;;;;;;;10.60;5.70;;;;;;;;;;5008535;28;20045;-87
2022/08/22 02:18:05;;;;;;;9.93;5.60;;;;;;;;;;5010232;28;20046;-87
2022/08/22 02:20:50;;;;;;;8.40;5.15;;;;;;;;;;5014928;28;20050;-86
2022/08/22 02:23:22;;;;;;;9.07;5.78;;;;;;;;;;5018970;28;20045;-86
2022/08/22 02:26:02;;;;;;;8.07;5.72;;;;;;;;;;5010876;28;20095;-87
2022/08/22 02:28:37;;;;;;;9.73;5.70;;;;;;;;;;5029763;28;20038;-86
2022/08/22 02:31:03;;;;;;;9.63;5.45;;;;;;;;;;5026854;28;20057;-87
2022/08/22 02:33:33;;;;;;;10.38;5.75;;;;;;;;;;5010872;28;20080;-87
2022/08/22 02:36:01;;;;;;;8.10;5.40;;;;;;;;;;4999998;28;20057;-87
2022/08/22 02:38:57;;;;;;;8.05;5.60;;;;;;;;;;5011337;28;20516;-86
2022/08/22 02:41:42;;;;;;;11.90;6.60;;;;;;;;;;4924793;28;20059;-87
2022/08/22 02:44:25;;;;;;;7.55;5.40;;;;;;;;;;5011052;28;20092;-87
2022/08/22 02:46:55;;;;;;;8.77;5.88;;;;;;;;;;5009424;28;20467;-86
2022/08/22 02:49:32;;;;;;;9.93;5.80;;;;;;;;;;5024008;28;21041;-87
2022/08/22 02:52:06;;;;;;;10.65;6.18;;;;;;;;;;5028567;28;20081;-86
2022/08/22 02:54:46;;;;;;;9.10;5.78;;;;;;;;;;5011155;28;20046;-87
2022/08/22 02:57:19;;;;;;;9.20;5.85;;;;;;;;;;5003390;28;20081;-87
2022/08/22 03:00:01;;;;;;;9.85;5.90;;;;;;;;;;5010217;28;20362;-87
2022/08/22 03:02:35;;;;;;;8.73;5.07;;;;;;;;;;5010434;28;20132;-86
2022/08/22 03:05:22;;;;;;;7.65;5.45;;;;;;;;;;5007998;28;20465;-86
2022/08/22 03:07:54;;;;;;;10.05;5.68;;;;;;;;;;5028876;28;20041;-87
2022/08/22 03:10:22;;;;;;;7.10;5.55;;;;;;;;;;5029748;28;20037;-87
2022/08/22 03:12:54;;;;;;;7.68;5.63;;;;;;;;;;5011566;28;20517;-87
2022/08/22 03:15:23;;;;;;;7.82;5.70;;;;;;;;;;5010591;28;20438;-87
2022/08/22 03:18:05;;;;;;;11.65;5.95;;;;;;;;;;5007938;28;20046;-87
2022/08/22 03:20:43;;;;;;;9.05;5.75;;;;;;;;;;5008218;28;20084;-86
2022/08/22 03:23:14;;;;;;;8.65;6.20;;;;;;;;;;5010315;28;20460;-86
2022/08/22 03:25:47;;;;;;;8.98;5.68;;;;;;;;;;5023813;28;20053;-88
2022/08/22 03:28:15;;;;;;;8.48;6.38;;;;;;;;;;5019481;28;20064;-87
2022/08/22 03:30:44;;;;;;;9.18;6.13;;;;;;;;;;5004043;28;20453;-87
2022/08/22 03:33:18;;;;;;;7.18;5.82;;;;;;;;;;5021541;28;20080;-86
2022/08/22 03:35:44;;;;;;;8.13;5.97;;;;;;;;;;5022584;28;20038;-86
2022/08/22 03:38:23;;;;;;;8.43;5.70;;;;;;;;;;5027481;28;20041;-86
2022/08/22 03:40:57;;;;;;;8.63;5.90;;;;;;;;;;5003825;28;20049;-86
2022/08/22 03:43:29;;;;;;;8.85;6.22;;;;;;;;;;5030473;28;20049;-87
2022/08/22 03:46:14;;;;;;;8.45;5.97;;;;;;;;;;4999359;28;20052;-84
2022/08/22 03:48:59;;;;;;;9.15;6.55;;;;;;;;;;5028703;28;20095;-85
2022/08/22 03:51:27;;;;;;;8.50;5.70;;;;;;;;;;5031727;28;20527;-84
2022/08/22 03:54:02;;;;;;;9.90;7.07;;;;;;;;;;5032643;28;20079;-84
2022/08/22 03:56:41;;;;;;;10.43;6.10;;;;;;;;;;5013586;28;20067;-85
2022/08/22 03:59:10;;;;;;;10.55;7.05;;;;;;;;;;5012190;28;20084;-84
2022/08/22 04:01:36;;;;;;;8.50;6.95;;;;;;;;;;5011830;28;20056;-84
2022/08/22 04:04:18;;;;;;;9.13;6.05;;;;;;;;;;5012503;28;20521;-84
2022/08/22 04:06:44;;;;;;;9.75;6.53;;;;;;;;;;5012629;28;20049;-84
2022/08/22 04:09:18;;;;;;;8.95;6.32;;;;;;;;;;5033138;28;20415;-84
2022/08/22 04:11:59;;;;;;;10.15;6.72;;;;;;;;;;5026903;28;20139;-84
2022/08/22 04:14:38;;;;;;;9.98;6.80;;;;;;;;;;5014165;28;20487;-84
2022/08/22 04:17:23;;;;;;;10.48;6.43;;;;;;;;;;5009497;28;20046;-84
2022/08/22 04:19:49;;;;;;;11.52;6.70;;;;;;;;;;5030649;28;20494;-83
2022/08/22 04:22:24;;;;;;;10.48;7.18;;;;;;;;;;5030638;28;20045;-83
2022/08/22 04:24:53;;;;;;;9.18;6.93;;;;;;;;;;5014753;28;20041;-85
2022/08/22 04:27:37;;;;;;;11.57;6.90;;;;;;;;;;5010513;28;20046;-85
2022/08/22 04:30:13;;;;;;;9.40;6.75;;;;;;;;;;5014747;28;20144;-84
2022/08/22 04:32:42;;;;;;;10.02;7.20;;;;;;;;;;5029121;28;20129;-84
2022/08/22 04:35:11;;;;;;;10.68;7.47;;;;;;;;;;5032961;28;20092;-83
2022/08/22 04:37:45;;;;;;;10.38;6.72;;;;;;;;;;5008957;28;20049;-85
2022/08/22 04:40:26;;;;;;;9.07;6.72;;;;;;;;;;5027049;28;20048;-84
2022/08/22 04:43:07;;;;;;;9.98;7.00;;;;;;;;;;5022706;28;20077;-84
2022/08/22 04:45:36;;;;;;;9.23;6.68;;;;;;;;;;5032209;28;20049;-84
2022/08/22 04:48:14;;;;;;;9.05;6.90;;;;;;;;;;5009826;28;20057;-84
2022/08/22 04:50:43;;;;;;;10.50;6.75;;;;;;;;;;5033307;28;20052;-84
2022/08/22 04:53:28;;;;;;;8.48;7.07;;;;;;;;;;5015281;28;20045;-83
2022/08/22 04:56:20;;;;;;;11.57;7.40;;;;;;;;;;5002740;28;20068;-84
2022/08/22 04:59:05;;;;;;;9.35;6.88;;;;;;;;;;4996693;28;20053;-84
2022/08/22 05:02:07;;;;;;;8.82;6.57;;;;;;;;;;5010613;28;20060;-83
2022/08/22 05:04:39;;;;;;;8.23;6.35;;;;;;;;;;4931191;29;20064;-83
2022/08/22 05:07:08;;;;;;;8.77;6.30;;;;;;;;;;5011502;28;20058;-83
2022/08/22 05:09:37;;;;;;;13.48;9.65;;;;;;;;;;5030478;28;20045;-84
2022/08/22 05:12:06;;;;;;;12.75;9.45;;;;;;;;;;5012399;28;20053;-84
2022/08/22 05:14:39;;;;;;;10.38;6.57;;;;;;;;;;5015162;28;20053;-84
2022/08/22 05:17:10;;;;;;;8.48;5.88;;;;;;;;;;5023105;28;20033;-84
2022/08/22 05:19:38;;;;;;;9.65;6.15;;;;;;;;;;5017648;28;20473;-83
2022/08/22 05:22:05;;;;;;;10.82;5.95;;;;;;;;;;5024444;28;20045;-83
2022/08/22 05:24:35;;;;;;;10.30;5.57;;;;;;;;;;5030364;28;20069;-84
2022/08/22 05:27:10;;;;;;;7.72;5.57;;;;;;;;;;5012338;28;20038;-84
2022/08/22 05:29:38;;;;;;;12.52;5.78;;;;;;;;;;5011008;28;20052;-84
2022/08/22 05:32:05;;;;;;;8.32;5.82;;;;;;;;;;5002329;28;20045;-84
2022/08/22 05:34:35;;;;;;;9.82;6.10;;;;;;;;;;5006624;28;20056;-84
2022/08/22 05:37:08;;;;;;;10.63;5.80;;;;;;;;;;5009857;28;20045;-84
2022/08/22 05:39:37;;;;;;;9.50;5.85;;;;;;;;;;5021528;28;20125;-84
2022/08/22 05:42:03;;;;;;;9.15;6.07;;;;;;;;;;5011009;28;20333;-84
2022/08/22 05:44:33;;;;;;;8.38;6.20;;;;;;;;;;5027306;28;20493;-84
2022/08/22 05:47:05;;;;;;;9.07;5.97;;;;;;;;;;5024565;28;20053;-85
2022/08/22 05:49:35;;;;;;;10.05;5.53;;;;;;;;;;5026271;28;20544;-82
2022/08/22 05:52:20;;;;;;;8.50;6.05;;;;;;;;;;5025124;28;20046;-83
2022/08/22 05:54:57;;;;;;;6.90;6.05;;;;;;;;;;5027183;28;20107;-84
2022/08/22 05:57:31;;;;;;;11.18;5.88;;;;;;;;;;5012069;28;20057;-82
2022/08/22 06:00:01;;;;;;;8.20;5.60;;;;;;;;;;5025186;28;20092;-85
2022/08/22 06:02:37;;;;;;;9.00;5.93;;;;;;;;;;5012005;28;20046;-84
2022/08/22 06:05:06;;;;;;;7.72;5.68;;;;;;;;;;5011436;28;20579;-83
2022/08/22 06:07:47;;;;;;;8.43;5.15;;;;;;;;;;5012382;28;20050;-82
2022/08/22 06:10:26;;;;;;;11.45;5.72;;;;;;;;;;5005540;28;20046;-83
2022/08/22 06:12:59;;;;;;;9.05;5.65;;;;;;;;;;5012799;28;20134;-83
2022/08/22 06:15:43;;;;;;;7.25;5.18;;;;;;;;;;5011458;28;20139;-83
2022/08/22 06:18:15;;;;;;;9.65;5.75;;;;;;;;;;5021182;28;20087;-84
2022/08/22 06:20:44;;;;;;;9.45;5.35;;;;;;;;;;5027122;28;20057;-83
2022/08/22 06:23:14;;;;;;;9.50;5.45;;;;;;;;;;5028873;28;20493;-84
2022/08/22 06:25:42;;;;;;;8.00;5.75;;;;;;;;;;5030136;28;20104;-78
2022/08/22 06:28:11;;;;;;;7.88;5.43;;;;;;;;;;5010103;28;20512;-84
2022/08/22 06:30:38;;;;;;;10.20;5.45;;;;;;;;;;5026266;28;20100;-84
2022/08/22 06:33:11;;;;;;;7.93;5.18;;;;;;;;;;5006050;28;20045;-83
2022/08/22 06:38:33;;;;;;;10.25;5.38;;;;;;;;;;5025241;28;20077;-84
2022/08/22 06:41:02;;;;;;;8.45;4.93;;;;;;;;;;5021833;28;20053;-84
2022/08/22 06:43:32;;;;;;;7.80;4.78;;;;;;;;;;5012347;28;21681;-86
2022/08/22 06:45:59;;;;;;;10.30;5.25;;;;;;;;;;5010300;28;20046;-86
2022/08/22 06:48:26;;;;;;;11.30;5.45;;;;;;;;;;5028025;28;20516;-85
2022/08/22 06:50:55;;;;;;;10.80;4.90;;;;;;;;;;5027816;28;20827;-87
2022/08/22 06:53:27;;;;;;;8.55;5.32;;;;;;;;;;5013166;28;20057;-87
2022/08/22 06:55:55;;;;;;;9.23;4.93;;;;;;;;;;5011654;28;20060;-85
2022/08/22 06:58:29;;;;;;;9.18;5.18;;;;;;;;;;5024116;28;20083;-85
2022/08/22 07:00:57;;;;;;;10.27;5.28;;;;;;;;;;5029203;28;20037;-85
2022/08/22 07:03:29;;;;;;;14.43;5.05;;;;;;;;;;5029850;28;20057;-86
2022/08/22 07:05:56;;;;;;;7.13;4.80;;;;;;;;;;5011134;28;20099;-85
2022/08/22 07:08:23;;;;;;;8.25;5.30;;;;;;;;;;5031079;28;20489;-87
2022/08/22 07:11:20;;;;;;;7.35;4.57;;;;;;;;;;5009536;28;20090;-87
2022/08/22 07:14:01;;;;;;;9.52;4.80;;;;;;;;;;5016536;28;20490;-87
2022/08/22 07:16:31;;;;;;;8.57;4.95;;;;;;;;;;5029447;28;20057;-87
2022/08/22 07:18:57;;;;;;;11.07;5.05;;;;;;;;;;5031712;28;20607;-85
2022/08/22 07:21:28;;;;;;;8.45;4.68;;;;;;;;;;5021515;28;20053;-86
2022/08/22 07:23:55;;;;;;;7.25;4.15;;;;;;;;;;5008389;28;20136;-86
2022/08/22 07:26:24;;;;;;;10.75;4.20;;;;;;;;;;5010716;28;20468;-87
2022/08/22 07:28:52;;;;;;;9.30;4.22;;;;;;;;;;5035083;28;20033;-88
2022/08/22 07:31:30;;;;;;;8.10;4.22;;;;;;;;;;5024255;28;20147;-87
2022/08/22 07:34:02;;;;;;;9.63;4.70;;;;;;;;;;5029322;28;20120;-87
2022/08/22 07:36:40;;;;;;;7.05;4.10;;;;;;;;;;5012768;28;20044;-86
2022/08/22 07:39:18;;;;;;;10.77;4.45;;;;;;;;;;4994977;28;20128;-86
2022/08/22 07:41:54;;;;;;;9.63;4.07;;;;;;;;;;5003720;28;20072;-87
2022/08/22 07:44:23;;;;;;;9.57;4.05;;;;;;;;;;5031490;28;20452;-87
2022/08/22 07:46:55;;;;;;;8.23;4.10;;;;;;;;;;5026307;28;20497;-87
2022/08/22 07:49:25;;;;;;;8.60;3.90;;;;;;;;;;5021893;28;20093;-87
2022/08/22 07:51:57;;;;;;;8.10;4.55;;;;;;;;;;5011241;28;20095;-87
2022/08/22 07:54:35;;;;;;;6.10;3.95;;;;;;;;;;4996173;28;20150;-86
2022/08/22 07:57:05;;;;;;;9.20;4.25;;;;;;;;;;5014223;28;20076;-87
2022/08/22 07:59:33;;;;;;;10.32;4.25;;;;;;;;;;5013498;28;20049;-87
2022/08/22 08:02:00;;;;;;;7.72;3.90;;;;;;;;;;5011609;28;20057;-86
2022/08/22 08:04:31;;;;;;;8.93;3.60;;;;;;;;;;5008276;28;20056;-86
2022/08/22 08:06:59;;;;;;;5.65;3.60;;;;;;;;;;5025035;28;20544;-86
2022/08/22 08:09:31;;;;;;;8.93;3.78;;;;;;;;;;5016249;28;20427;-86
2022/08/22 08:11:59;;;;;;;6.90;3.70;;;;;;;;;;5025004;28;20607;-88
2022/08/22 08:14:25;;;;;;;9.07;3.70;;;;;;;;;;5024577;28;20362;-87
2022/08/22 08:17:02;;;;;;;9.10;3.55;;;;;;;;;;5040276;28;20048;-88
2022/08/22 08:19:29;;;;;;;10.48;3.40;;;;;;;;;;5011487;28;20053;-81
2022/08/22 08:21:56;;;;;;;7.90;2.80;;;;;;;;;;4998815;28;20508;-86
2022/08/22 08:24:25;;;;;;;7.97;3.38;;;;;;;;;;5030163;28;20516;-84
2022/08/22 08:29:39;;;;;;;6.57;3.50;;;;;;;;;;4998937;28;20081;-86
2022/08/22 08:32:08;;;;;;;8.88;3.30;;;;;;;;;;5010831;28;20128;-84
2022/08/22 08:34:36;;;;;;;7.00;3.15;;;;;;;;;;5006884;28;20049;-85
2022/08/22 08:37:15;;;;;;;7.82;3.15;;;;;;;;;;5039391;28;20041;-86
2022/08/22 08:39:44;;;;;;;4.78;2.95;;;;;;;;;;5024854;28;20056;-85
2022/08/22 08:42:10;;;;;;;5.13;2.67;;;;;;;;;;5007419;28;20125;-85
2022/08/22 08:44:39;;;;;;;6.15;2.90;;;;;;;;;;4999621;28;20046;-86
2022/08/22 08:47:24;;;;;;;5.30;2.60;;;;;;;;;;5014598;28;20065;-86
2022/08/22 08:49:56;;;;;;;6.15;2.70;;;;;;;;;;5033289;28;20053;-86
2022/08/22 08:52:36;;;;;;;6.80;3.10;;;;;;;;;;5031380;28;20033;-86
2022/08/22 08:55:22;;;;;;;8.90;3.15;;;;;;;;;;5006958;28;20512;-86
2022/08/22 08:57:58;;;;;;;5.88;2.70;;;;;;;;;;5014076;28;20085;-87
2022/08/22 09:00:42;;;;;;;7.03;3.05;;;;;;;;;;5017586;28;20049;-85
2022/08/22 09:03:12;;;;;;;8.52;2.92;;;;;;;;;;5007461;28;20128;-88
2022/08/22 09:05:44;;;;;;;4.40;2.85;;;;;;;;;;5022361;28;20045;-86
2022/08/22 09:08:10;;;;;;;6.88;2.58;;;;;;;;;;5035658;28;20052;-88
2022/08/22 09:10:56;;;;;;;5.57;2.70;;;;;;;;;;5000118;28;20050;-87
2022/08/22 09:13:40;;;;;;;3.70;2.50;;;;;;;;;;5031198;28;20154;-86
2022/08/22 09:16:33;;;;;;;7.15;3.05;;;;;;;;;;5009672;28;20041;-86
2022/08/22 09:19:18;;;;;;;5.63;2.90;;;;;;;;;;5029585;28;20062;-85
2022/08/22 09:21:54;;;;;;;8.13;3.42;;;;;;;;;;5032833;28;20144;-86
2022/08/22 09:24:29;;;;;;;4.32;2.78;;;;;;;;;;5014861;28;20060;-86
2022/08/22 09:27:06;;;;;;;5.03;2.75;;;;;;;;;;5013703;28;20041;-87
2022/08/22 09:29:35;;;;;;;6.25;2.65;;;;;;;;;;5013718;28;20588;-86
2022/08/22 09:32:11;;;;;;;5.63;2.78;;;;;;;;;;5007019;28;20067;-86
2022/08/22 09:34:56;;;;;;;4.20;2.70;;;;;;;;;;5001281;28;20045;-87
2022/08/22 09:37:33;;;;;;;6.22;2.65;;;;;;;;;;5026565;28;20042;-85
2022/08/22 09:40:18;;;;;;;5.45;2.85;;;;;;;;;;5030100;28;20045;-82
2022/08/22 09:42:50;;;;;;;4.97;2.75;;;;;;;;;;5019957;28;20132;-83
2022/08/22 09:45:34;;;;;;;6.60;2.30;;;;;;;;;;5018808;28;20394;-83
2022/08/22 09:48:04;;;;;;;5.28;2.45;;;;;;;;;;5006739;28;20401;-82
2022/08/22 09:50:33;;;;;;;6.95;3.45;;;;;;;;;;4999947;28;20448;-81
2022/08/22 09:53:08;;;;;;;5.28;2.53;;;;;;;;;;5007746;28;20133;-82
2022/08/22 09:55:36;;;;;;;7.60;3.65;;;;;;;;;;5016012;28;20057;-84
2022/08/22 09:58:06;;;;;;;5.68;3.83;;;;;;;;;;5018479;28;20116;-84
2022/08/22 10:00:58;;;;;;;7.07;3.40;;;;;;;;;;5011077;28;20042;-83
2022/08/22 10:03:31;;;;;;;4.88;2.65;;;;;;;;;;4999420;28;20061;-83
2022/08/22 10:05:58;;;;;;;;;;;;;;;;;;5014069;28;20493;-83
2022/08/22 10:08:38;;;;;;;5.55;2.10;;;;;;;;;;5013722;28;20023;-83
2022/08/22 10:11:17;;;;;;;5.20;2.35;;;;;;;;;;5033078;28;20397;-87
2022/08/22 10:13:58;;;;;;;5.68;2.17;;;;;;;;;;5032277;28;20045;-84
2022/08/22 10:16:25;;;;;;;5.43;2.22;;;;;;;;;;5010715;28;20481;-84
2022/08/22 10:18:51;;;;;;;7.53;2.75;;;;;;;;;;5020255;28;20101;-85
2022/08/22 10:21:20;;;;;;;3.58;2.20;;;;;;;;;;5016865;28;20084;-85
2022/08/22 10:24:00;;;;;;;5.10;2.15;;;;;;;;;;5019133;28;20041;-86
2022/08/22 10:26:30;;;;;;;4.70;2.30;;;;;;;;;;5014100;28;20053;-87
2022/08/22 10:28:56;;;;;;;3.25;2.20;;;;;;;;;;5033303;28;20038;-87
2022/08/22 10:31:32;;;;;;;4.13;2.33;;;;;;;;;;5005516;28;20040;-82
2022/08/22 10:34:18;;;;;;;4.47;2.33;;;;;;;;;;5031732;28;20049;-84
2022/08/22 10:37:09;;;;;;;4.35;2.13;;;;;;;;;;5024341;28;20049;-85
2022/08/22 10:39:41;;;;;;;5.10;2.40;;;;;;;;;;5012794;28;20092;-84
2022/08/22 10:42:26;;;;;;;5.18;2.35;;;;;;;;;;4995353;28;20131;-83
2022/08/22 10:45:07;;;;;;;4.20;2.20;;;;;;;;;;5001787;28;20096;-87
2022/08/22 10:47:37;;;;;;;4.22;2.40;;;;;;;;;;5010559;28;20062;-86
2022/08/22 10:50:06;;;;;;;4.60;2.13;;;;;;;;;;5025498;28;20121;-86
2022/08/22 10:52:36;;;;;;;4.00;2.38;;;;;;;;;;5029464;28;20448;-86
2022/08/22 10:55:02;;;;;;;3.80;2.00;;;;;;;;;;5028834;28;20056;-86
2022/08/22 10:57:35;;;;;;;3.50;2.10;;;;;;;;;;4998317;28;20046;-86
2022/08/22 11:00:10;;;;;;;4.40;2.40;;;;;;;;;;5012952;28;20049;-86
2022/08/22 11:02:36;;;;;;;6.78;2.33;;;;;;;;;;5011726;28;20053;-86
2022/08/22 11:05:21;;;;;;;4.07;2.33;;;;;;;;;;5007709;28;20095;-85
2022/08/22 11:08:06;;;;;;;4.75;2.20;;;;;;;;;;5013597;28;20103;-86
2022/08/22 11:10:32;;;;;;;8.13;2.65;;;;;;;;;;5031069;28;20056;-87
2022/08/22 11:12:58;;;;;;;6.70;2.75;;;;;;;;;;5011371;28;20045;-86
2022/08/22 11:15:44;;;;;;;4.45;2.60;;;;;;;;;;5024907;28;20037;-83
2022/08/22 11:18:30;;;;;;;4.40;2.53;;;;;;;;;;5027290;28;20095;-85
2022/08/22 11:21:02;;;;;;;3.03;2.20;;;;;;;;;;5020882;28;20156;-89
2022/08/22 11:23:27;;;;;;;6.90;2.28;;;;;;;;;;5029887;28;20131;-89
2022/08/22 11:25:56;;;;;;;6.45;2.65;;;;;;;;;;5014672;28;20441;-89
2022/08/22 11:28:22;;;;;;;8.60;3.05;;;;;;;;;;5005473;28;20054;-89
2022/08/22 11:31:15;;;;;;;4.03;2.35;;;;;;;;;;5015437;28;20053;-89
2022/08/22 11:33:47;;;;;;;5.43;2.33;;;;;;;;;;5024304;28;20053;-89
2022/08/22 11:36:32;;;;;;;5.40;2.25;;;;;;;;;;5013022;28;20049;-89
2022/08/22 11:39:02;;;;;;;3.78;2.30;;;;;;;;;;5003646;28;20054;-89
2022/08/22 11:41:37;;;;;;;4.70;2.20;;;;;;;;;;5012416;28;20049;-88
2022/08/22 11:44:12;;;;;;;4.57;2.38;;;;;;;;;;5030921;28;20131;-90
2022/08/22 11:46:46;;;;;;;3.58;2.28;;;;;;;;;;5004000;28;20057;-90
2022/08/22 11:49:12;;;;;;;7.43;2.78;;;;;;;;;;5032178;28;20072;-89
2022/08/22 11:51:56;;;;;;;3.65;2.55;;;;;;;;;;5014645;28;20057;-89
2022/08/22 11:54:22;;;;;;;4.07;2.28;;;;;;;;;;5030886;28;20037;-89
2022/08/22 11:56:52;;;;;;;3.55;2.30;;;;;;;;;;5026303;28;20042;-89
2022/08/22 11:59:32;;;;;;;3.92;2.10;;;;;;;;;;5013130;28;20050;-89
2022/08/22 12:02:01;;;;;;;3.95;2.50;;;;;;;;;;5005796;28;20057;-89
2022/08/22 12:04:33;;;;;;;5.75;2.63;;;;;;;;;;5013586;28;20498;-89
2022/08/22 12:07:04;;;;;;;3.10;2.20;;;;;;;;;;5025542;28;20131;-89
2022/08/22 12:09:37;;;;;;;2.42;2.00;;;;;;;;;;5016212;28;20049;-89
2022/08/22 12:12:21;;;;;;;3.90;2.38;;;;;;;;;;5003229;28;20085;-89
2022/08/22 12:15:06;;;;;;;3.78;2.30;;;;;;;;;;5012818;28;20049;-89
2022/08/22 12:17:38;;;;;;;3.90;2.30;;;;;;;;;;5015680;28;20095;-88
2022/08/22 12:20:22;;;;;;;4.90;2.07;;;;;;;;;;5035047;28;20061;-88
2022/08/22 12:22:53;;;;;;;4.25;2.22;;;;;;;;;;5035146;28;20045;-89
2022/08/22 12:25:30;;;;;;;4.10;2.20;;;;;;;;;;5011373;28;20081;-88
2022/08/22 12:28:00;;;;;;;4.65;2.58;;;;;;;;;;5017612;28;20476;-89
2022/08/22 12:30:32;;;;;;;4.60;2.40;;;;;;;;;;5017389;28;20439;-89
2022/08/22 12:33:09;;;;;;;4.07;2.20;;;;;;;;;;5014892;28;20393;-88
2022/08/22 12:35:55;;;;;;;5.68;2.30;;;;;;;;;;5015278;28;20053;-89
2022/08/22 12:38:33;;;;;;;5.43;2.28;;;;;;;;;;5034944;28;20099;-89
2022/08/22 12:41:17;;;;;;;3.85;2.05;;;;;;;;;;5010621;28;20103;-89
2022/08/22 12:43:43;;;;;;;4.00;2.40;;;;;;;;;;5032424;28;20506;-89
2022/08/22 12:46:36;;;;;;;4.20;2.40;;;;;;;;;;5028775;28;20068;-86
2022/08/22 12:49:28;;;;;;;6.00;2.08;;;;;;;;;;5002030;28;20147;-89
2022/08/22 12:51:58;;;;;;;2.75;2.20;;;;;;;;;;4999594;28;20421;-90
2022/08/22 12:54:39;;;;;;;5.05;2.50;;;;;;;;;;5024766;28;20053;-88
2022/08/22 12:57:15;;;;;;;4.60;2.33;;;;;;;;;;5002707;28;20049;-90
2022/08/22 12:59:42;;;;;;;5.90;2.33;;;;;;;;;;5025978;28;20493;-89
2022/08/22 13:02:22;;;;;;;4.78;2.28;;;;;;;;;;5031148;28;20575;-89
2022/08/22 13:04:53;;;;;;;6.25;2.17;;;;;;;;;;5023546;28;20041;-89
2022/08/22 13:07:30;;;;;;;4.13;2.20;;;;;;;;;;5013133;28;20514;-88
2022/08/22 13:09:59;;;;;;;5.57;2.30;;;;;;;;;;5033111;28;20175;-89
2022/08/22 13:12:28;;;;;;;5.03;2.17;;;;;;;;;;5031449;28;20033;-88
2022/08/22 13:15:30;;;;;;;3.13;1.90;;;;;;;;;;5045448;28;20080;-88
2022/08/22 13:17:57;;;;;;;4.45;2.45;;;;;;;;;;4949516;29;20098;-89
2022/08/22 13:20:34;;;;;;;2.72;2.03;;;;;;;;;;4998520;28;20486;-88
2022/08/22 13:23:05;;;;;;;4.13;2.20;;;;;;;;;;4995809;28;20050;-88
2022/08/22 13:25:51;;;;;;;2.88;2.20;;;;;;;;;;5015202;28;20042;-88
2022/08/22 13:28:17;;;;;;;6.13;2.40;;;;;;;;;;5014673;28;20045;-89
2022/08/22 13:30:43;;;;;;;5.88;2.30;;;;;;;;;;5029776;28;20041;-89
2022/08/22 13:33:14;;;;;;;5.03;2.22;;;;;;;;;;5031948;28;20069;-89
2022/08/22 13:35:47;;;;;;;4.50;2.25;;;;;;;;;;5012175;28;20085;-89
2022/08/22 13:38:18;;;;;;;5.53;2.55;;;;;;;;;;5034972;28;20386;-88
2022/08/22 13:40:45;;;;;;;4.28;2.15;;;;;;;;;;5020438;28;20045;-89
2022/08/22 13:43:13;;;;;;;3.97;2.30;;;;;;;;;;5006083;28;20046;-89
2022/08/22 13:45:41;;;;;;;4.25;2.17;;;;;;;;;;5032354;28;20038;-90
2022/08/22 13:48:14;;;;;;;2.85;2.08;;;;;;;;;;5021774;28;20569;-89
2022/08/22 13:51:03;;;;;;;4.90;2.33;;;;;;;;;;5013906;28;20207;-90
2022/08/22 13:53:41;;;;;;;5.57;2.42;;;;;;;;;;5008891;28;20398;-89
2022/08/22 13:56:18;;;;;;;3.40;2.13;;;;;;;;;;5022507;28;20084;-89
2022/08/22 13:58:46;;;;;;;4.05;2.30;;;;;;;;;;5016301;28;20045;-90
2022/08/22 14:01:15;;;;;;;2.95;2.10;;;;;;;;;;5031389;28;20049;-89
2022/08/22 14:03:49;;;;;;;3.88;2.40;;;;;;;;;;5031606;28;20048;-89
2022/08/22 14:06:27;;;;;;;4.97;2.28;;;;;;;;;;5033321;28;20060;-88
2022/08/22 14:08:56;;;;;;;3.97;2.20;;;;;;;;;;5020231;28;20041;-89
2022/08/22 14:11:31;;;;;;;3.47;2.00;;;;;;;;;;5032608;28;20075;-89
2022/08/22 14:13:59;;;;;;;4.38;2.15;;;;;;;;;;5030705;28;20409;-91
2022/08/22 14:16:26;;;;;;;4.07;2.00;;;;;;;;;;5015587;28;20052;-88
2022/08/22 14:19:03;;;;;;;3.67;1.92;;;;;;;;;;5031203;28;20386;-90
2022/08/22 14:21:41;;;;;;;2.58;2.05;;;;;;;;;;5025481;28;20038;-89
2022/08/22 14:24:19;;;;;;;6.60;2.13;;;;;;;;;;5016165;28;20106;-89
2022/08/22 14:26:53;;;;;;;3.40;1.95;;;;;;;;;;5033509;28;20393;-90
2022/08/22 14:29:20;;;;;;;2.95;1.85;;;;;;;;;;5025988;28;20088;-89
2022/08/22 14:31:57;;;;;;;3.58;1.92;;;;;;;;;;5012886;28;20540;-89
2022/08/22 14:34:25;;;;;;;3.05;2.00;;;;;;;;;;5008728;28;20068;-89
2022/08/22 14:36:53;;;;;;;3.40;1.98;;;;;;;;;;5032205;28;20033;-90
2022/08/22 14:39:32;;;;;;;3.53;2.08;;;;;;;;;;5014531;28;20134;-90
2022/08/22 14:42:04;;;;;;;4.55;1.98;;;;;;;;;;5010185;28;20041;-88
2022/08/22 14:44:56;;;;;;;5.53;2.10;;;;;;;;;;5009985;28;20104;-89
2022/08/22 14:47:33;;;;;;;2.25;1.90;;;;;;;;;;4987694;28;20529;-89
2022/08/22 14:50:08;;;;;;;2.92;1.88;;;;;;;;;;5015826;28;20087;-89
2022/08/22 14:52:34;;;;;;;7.97;2.00;;;;;;;;;;5014764;28;20053;-90
2022/08/22 14:55:09;;;;;;;2.70;1.80;;;;;;;;;;5035166;28;20053;-89
2022/08/22 14:57:37;;;;;;;2.50;1.60;;;;;;;;;;5034754;28;20092;-89
2022/08/22 15:00:10;;;;;;;4.47;1.98;;;;;;;;;;5009046;28;20475;-89
2022/08/22 15:02:36;;;;;;;4.10;1.95;;;;;;;;;;5032336;28;20092;-90
2022/08/22 15:05:12;;;;;;;3.08;1.42;;;;;;;;;;5016444;28;20050;-89
2022/08/22 15:07:38;;;;;;;1.98;1.67;;;;;;;;;;5023954;28;20427;-90
2022/08/22 15:10:21;;;;;;;2.38;1.75;;;;;;;;;;5033576;28;20041;-90
2022/08/22 15:12:50;;;;;;;5.25;1.77;;;;;;;;;;5034620;28;20083;-90
2022/08/22 15:15:36;;;;;;;5.57;1.75;;;;;;;;;;5008731;28;20473;-89
2022/08/22 15:18:09;;;;;;;4.13;1.90;;;;;;;;;;5008763;28;20053;-89
2022/08/22 15:20:36;;;;;;;4.70;1.90;;;;;;;;;;5028413;28;20038;-90
2022/08/22 15:23:04;;;;;;;4.30;1.70;;;;;;;;;;5018102;28;20076;-91
2022/08/22 15:25:34;;;;;;;3.97;1.77;;;;;;;;;;5014295;28;20045;-90
2022/08/22 15:28:06;;;;;;;4.75;1.83;;;;;;;;;;5016545;28;20061;-90
2022/08/22 15:30:38;;;;;;;2.92;1.67;;;;;;;;;;5020887;28;20065;-89
2022/08/22 15:33:04;;;;;;;;;;;;;;;;;;5025734;28;20121;-85